Time;durP1;ratioP1;P1;durP2;ratioP2;P2;SDS_P1;SDS_P2;PMS_P1;PMS_P2;Temp;Humidity;BMP_temperature;BMP_pressure;BME280_temperature;BME280_humidity;BME280_pressure;Samples;Min_cycle;Max_cycle;Signal;HPM_P1;HPM_P2
2022/04/20 00:01:14;;;;;;;1.70;1.40;;;;;;;;;;5058861;28;20689;-78
2022/04/20 00:03:42;;;;;;;1.37;1.27;;;;;;;;;;5058671;28;20211;-78
2022/04/20 00:06:10;;;;;;;1.47;1.37;;;;;;;;;;5058413;28;20638;-79
2022/04/20 00:08:38;;;;;;;2.17;1.43;;;;;;;;;;5061746;28;20238;-79
2022/04/20 00:11:08;;;;;;;1.33;1.23;;;;;;;;;;5058517;28;20207;-78
2022/04/20 00:13:36;;;;;;;1.23;1.13;;;;;;;;;;5058822;28;20213;-79
2022/04/20 00:16:04;;;;;;;1.20;1.17;;;;;;;;;;5058189;28;20631;-79
2022/04/20 00:18:32;;;;;;;1.40;1.30;;;;;;;;;;5062008;28;20209;-78
2022/04/20 00:21:00;;;;;;;2.43;1.20;;;;;;;;;;5070041;28;20226;-79
2022/04/20 00:23:28;;;;;;;1.40;1.30;;;;;;;;;;5063578;28;20289;-78
2022/04/20 00:25:56;;;;;;;2.93;1.40;;;;;;;;;;5069851;28;20250;-81
2022/04/20 00:28:25;;;;;;;1.07;1.07;;;;;;;;;;5073522;28;20639;-81
2022/04/20 00:30:53;;;;;;;2.60;1.30;;;;;;;;;;5063126;28;20199;-80
2022/04/20 00:33:21;;;;;;;2.10;1.30;;;;;;;;;;5069662;28;20218;-80
2022/04/20 00:35:50;;;;;;;3.93;1.67;;;;;;;;;;5066774;28;20223;-81
2022/04/20 00:38:18;;;;;;;1.60;1.30;;;;;;;;;;5069478;28;20230;-80
2022/04/20 00:40:48;;;;;;;1.93;1.50;;;;;;;;;;5063463;28;20230;-81
2022/04/20 00:43:17;;;;;;;1.13;1.03;;;;;;;;;;5066068;28;20562;-80
2022/04/20 00:45:47;;;;;;;1.50;1.40;;;;;;;;;;5066956;28;20306;-80
2022/04/20 00:48:16;;;;;;;3.23;1.70;;;;;;;;;;5061516;28;20230;-80
2022/04/20 00:50:44;;;;;;;3.43;1.53;;;;;;;;;;5059004;28;20311;-80
2022/04/20 00:53:12;;;;;;;2.77;1.53;;;;;;;;;;5058428;28;20280;-80
2022/04/20 00:55:40;;;;;;;1.07;1.07;;;;;;;;;;5057725;28;20230;-81
2022/04/20 00:58:08;;;;;;;2.07;1.50;;;;;;;;;;5057825;28;20249;-80
2022/04/20 01:00:36;;;;;;;1.60;1.50;;;;;;;;;;5057905;28;20238;-80
2022/04/20 01:03:06;;;;;;;1.27;1.17;;;;;;;;;;5057341;28;20717;-81
2022/04/20 01:05:34;;;;;;;1.57;1.47;;;;;;;;;;5057603;28;20281;-80
2022/04/20 01:08:02;;;;;;;1.00;1.00;;;;;;;;;;5058803;28;20226;-80
2022/04/20 01:10:32;;;;;;;3.63;1.17;;;;;;;;;;5057926;28;20245;-81
2022/04/20 01:13:00;;;;;;;2.27;1.37;;;;;;;;;;5057338;28;20281;-82
2022/04/20 01:15:28;;;;;;;1.77;1.47;;;;;;;;;;5057642;28;20262;-80
2022/04/20 01:17:56;;;;;;;2.77;1.33;;;;;;;;;;5057263;28;20253;-80
2022/04/20 01:20:26;;;;;;;1.90;1.30;;;;;;;;;;5069962;28;20651;-81
2022/04/20 01:22:55;;;;;;;2.17;1.40;;;;;;;;;;5057748;28;20281;-81
2022/04/20 01:25:23;;;;;;;1.10;1.00;;;;;;;;;;5057309;28;20262;-81
2022/04/20 01:27:51;;;;;;;1.80;1.40;;;;;;;;;;5057484;28;20210;-80
2022/04/20 01:30:19;;;;;;;3.67;1.70;;;;;;;;;;5057002;28;20639;-81
2022/04/20 01:32:47;;;;;;;1.73;1.33;;;;;;;;;;5057653;28;20313;-81
2022/04/20 01:35:15;;;;;;;2.37;1.30;;;;;;;;;;5057109;28;20234;-80
2022/04/20 01:37:43;;;;;;;6.70;1.40;;;;;;;;;;5057450;28;20286;-80
2022/04/20 01:40:13;;;;;;;1.20;1.10;;;;;;;;;;5057497;28;20280;-80
2022/04/20 01:42:41;;;;;;;2.77;1.50;;;;;;;;;;5057591;28;20203;-80
2022/04/20 01:45:09;;;;;;;2.97;1.47;;;;;;;;;;5060479;28;20238;-80
2022/04/20 01:47:37;;;;;;;2.13;1.50;;;;;;;;;;5057023;28;20238;-81
2022/04/20 01:50:06;;;;;;;1.93;1.10;;;;;;;;;;5070235;28;20646;-80
2022/04/20 01:52:34;;;;;;;4.73;1.33;;;;;;;;;;5080064;28;20257;-79
2022/04/20 01:55:02;;;;;;;1.23;1.23;;;;;;;;;;5080829;28;20244;-81
2022/04/20 01:57:33;;;;;;;2.07;1.30;;;;;;;;;;5081345;28;20237;-81
2022/04/20 02:00:01;;;;;;;1.20;0.97;;;;;;;;;;5081148;28;20224;-82
2022/04/20 02:02:38;;;;;;;1.20;0.97;;;;;;;;;;5081114;28;20257;-81
2022/04/20 02:05:07;;;;;;;1.43;1.30;;;;;;;;;;5074418;28;20214;-81
2022/04/20 02:07:36;;;;;;;1.77;1.40;;;;;;;;;;5063176;28;20242;-81
2022/04/20 02:10:05;;;;;;;4.37;1.50;;;;;;;;;;5068363;28;20289;-80
2022/04/20 02:12:35;;;;;;;0.93;0.93;;;;;;;;;;5060665;28;20690;-80
2022/04/20 02:15:03;;;;;;;1.17;1.17;;;;;;;;;;5060362;28;20643;-80
2022/04/20 02:17:35;;;;;;;1.40;1.30;;;;;;;;;;5060568;28;20238;-80
2022/04/20 02:20:03;;;;;;;2.13;1.37;;;;;;;;;;5060422;28;20241;-80
2022/04/20 02:22:31;;;;;;;6.53;1.43;;;;;;;;;;5060873;28;20267;-80
2022/04/20 02:24:59;;;;;;;1.40;1.30;;;;;;;;;;5060399;28;20667;-80
2022/04/20 02:27:27;;;;;;;2.30;1.23;;;;;;;;;;5060760;28;20294;-81
2022/04/20 02:29:57;;;;;;;4.17;1.50;;;;;;;;;;5060697;28;20290;-81
2022/04/20 02:32:25;;;;;;;1.80;1.40;;;;;;;;;;5060664;28;20241;-81
2022/04/20 02:34:53;;;;;;;1.90;1.30;;;;;;;;;;5069278;28;20321;-81
2022/04/20 02:37:21;;;;;;;1.10;1.00;;;;;;;;;;5080057;28;20261;-81
2022/04/20 02:39:49;;;;;;;2.87;1.30;;;;;;;;;;5080466;28;20238;-81
2022/04/20 02:42:17;;;;;;;1.60;1.50;;;;;;;;;;5080154;28;20244;-80
2022/04/20 02:44:45;;;;;;;6.97;4.40;;;;;;;;;;5080161;28;20310;-80
2022/04/20 02:47:16;;;;;;;3.43;2.07;;;;;;;;;;5062396;28;20745;-80
2022/04/20 02:49:44;;;;;;;8.40;3.77;;;;;;;;;;5060201;28;20211;-79
2022/04/20 02:52:12;;;;;;;4.00;1.97;;;;;;;;;;5060371;28;20234;-80
2022/04/20 02:54:40;;;;;;;2.17;1.97;;;;;;;;;;5059771;28;20663;-80
2022/04/20 02:57:07;;;;;;;3.10;2.10;;;;;;;;;;5059850;28;20774;-79
2022/04/20 02:59:35;;;;;;;3.53;2.27;;;;;;;;;;5060007;28;20207;-80
2022/04/20 03:02:04;;;;;;;4.87;2.20;;;;;;;;;;5066359;28;20272;-79
2022/04/20 03:04:33;;;;;;;1.63;1.53;;;;;;;;;;5077943;28;20226;-80
2022/04/20 03:07:01;;;;;;;2.87;2.00;;;;;;;;;;5064304;28;20261;-80
2022/04/20 03:09:29;;;;;;;1.97;1.87;;;;;;;;;;5067957;28;20238;-80
2022/04/20 03:11:57;;;;;;;2.03;1.50;;;;;;;;;;5059760;28;20242;-80
2022/04/20 03:14:25;;;;;;;1.70;1.60;;;;;;;;;;5067230;28;20253;-80
2022/04/20 03:16:53;;;;;;;1.90;1.70;;;;;;;;;;5069169;28;20223;-80
2022/04/20 03:19:21;;;;;;;4.37;2.00;;;;;;;;;;5059521;28;20230;-80
2022/04/20 03:21:51;;;;;;;2.00;1.47;;;;;;;;;;5059587;28;20290;-80
2022/04/20 03:24:18;;;;;;;1.47;1.37;;;;;;;;;;5059285;28;20210;-81
2022/04/20 03:26:47;;;;;;;1.73;1.63;;;;;;;;;;5059405;28;20262;-79
2022/04/20 03:29:14;;;;;;;3.27;1.53;;;;;;;;;;5059643;28;20242;-80
2022/04/20 03:31:42;;;;;;;4.47;1.77;;;;;;;;;;5059519;28;20246;-79
2022/04/20 03:34:11;;;;;;;2.83;2.17;;;;;;;;;;5060080;28;20654;-81
2022/04/20 03:36:39;;;;;;;2.13;1.93;;;;;;;;;;5066229;28;20300;-80
2022/04/20 03:39:08;;;;;;;2.10;1.90;;;;;;;;;;5067437;28;20232;-79
2022/04/20 03:41:36;;;;;;;2.40;1.93;;;;;;;;;;5071805;28;20631;-80
2022/04/20 03:44:05;;;;;;;2.47;2.07;;;;;;;;;;5071130;28;20250;-80
2022/04/20 03:46:33;;;;;;;2.53;2.33;;;;;;;;;;5067570;28;20250;-79
2022/04/20 03:49:01;;;;;;;3.47;2.47;;;;;;;;;;5067035;28;20233;-81
2022/04/20 03:51:29;;;;;;;3.60;1.97;;;;;;;;;;5068503;28;20684;-80
2022/04/20 03:53:57;;;;;;;2.40;2.20;;;;;;;;;;5071374;28;20261;-80
2022/04/20 03:57:03;;;;;;;3.50;1.93;;;;;;;;;;5063218;28;20258;-80
2022/04/20 03:59:14;;;;;;;2.00;1.80;;;;;;;;;;5068218;28;20249;-79
2022/04/20 04:01:42;;;;;;;10.03;2.17;;;;;;;;;;5070833;28;20257;-80
2022/04/20 04:04:11;;;;;;;4.47;2.30;;;;;;;;;;5069614;28;20225;-80
2022/04/20 04:06:39;;;;;;;2.27;2.07;;;;;;;;;;5068207;28;20276;-80
2022/04/20 04:09:07;;;;;;;2.70;2.37;;;;;;;;;;5062105;28;20226;-80
2022/04/20 04:11:37;;;;;;;3.63;2.00;;;;;;;;;;5068959;28;20236;-80
2022/04/20 04:14:05;;;;;;;6.83;1.97;;;;;;;;;;5068616;28;20310;-79
2022/04/20 04:16:37;;;;;;;2.67;1.93;;;;;;;;;;5068161;28;20768;-80
2022/04/20 04:19:06;;;;;;;2.57;2.37;;;;;;;;;;5068854;28;20198;-80
2022/04/20 04:21:35;;;;;;;3.20;1.97;;;;;;;;;;5068285;28;20661;-80
2022/04/20 04:24:03;;;;;;;3.83;2.20;;;;;;;;;;5069044;28;20701;-80
2022/04/20 04:26:31;;;;;;;2.40;2.20;;;;;;;;;;5069631;28;20283;-80
2022/04/20 04:29:00;;;;;;;2.27;2.07;;;;;;;;;;5066737;28;20235;-80
2022/04/20 04:31:28;;;;;;;2.87;2.20;;;;;;;;;;5069715;28;20222;-81
2022/04/20 04:33:57;;;;;;;2.20;2.00;;;;;;;;;;5069653;28;20229;-80
2022/04/20 04:36:25;;;;;;;2.40;1.73;;;;;;;;;;5064639;28;20249;-80
2022/04/20 04:38:54;;;;;;;3.10;2.27;;;;;;;;;;5067271;28;20750;-80
2022/04/20 04:41:22;;;;;;;3.80;2.30;;;;;;;;;;5068145;28;20293;-79
2022/04/20 04:43:50;;;;;;;2.13;1.90;;;;;;;;;;5064753;28;20249;-80
2022/04/20 04:49:05;;;;;;;3.20;2.10;;;;;;;;;;5071106;28;20202;-81
2022/04/20 04:51:33;;;;;;;3.37;2.20;;;;;;;;;;5065837;28;20199;-81
2022/04/20 04:54:01;;;;;;;3.87;2.43;;;;;;;;;;5060110;28;20226;-71
2022/04/20 04:56:29;;;;;;;2.53;2.27;;;;;;;;;;5075868;28;20257;-71
2022/04/20 04:58:57;;;;;;;3.53;2.23;;;;;;;;;;5077893;28;20274;-71
2022/04/20 05:01:26;;;;;;;2.63;1.90;;;;;;;;;;5077483;28;20250;-72
2022/04/20 05:03:54;;;;;;;4.60;2.30;;;;;;;;;;5077059;28;20198;-73
2022/04/20 05:06:22;;;;;;;2.67;2.07;;;;;;;;;;5069777;28;20739;-71
2022/04/20 05:08:50;;;;;;;3.00;2.03;;;;;;;;;;5073163;28;20284;-71
2022/04/20 05:11:18;;;;;;;2.87;2.40;;;;;;;;;;5077775;28;20245;-70
2022/04/20 05:13:46;;;;;;;4.03;2.53;;;;;;;;;;5077356;28;20737;-71
2022/04/20 05:16:14;;;;;;;6.70;2.53;;;;;;;;;;5072699;28;20291;-70
2022/04/20 05:18:44;;;;;;;6.13;2.40;;;;;;;;;;5057306;28;20210;-70
2022/04/20 05:21:12;;;;;;;3.83;2.20;;;;;;;;;;5057202;28;20238;-70
2022/04/20 05:23:40;;;;;;;3.20;2.47;;;;;;;;;;5057437;28;20206;-70
2022/04/20 05:26:08;;;;;;;2.60;2.40;;;;;;;;;;5056928;28;20261;-70
2022/04/20 05:28:36;;;;;;;4.40;2.00;;;;;;;;;;5057769;28;20289;-70
2022/04/20 05:31:04;;;;;;;4.33;2.60;;;;;;;;;;5057229;28;20704;-70
2022/04/20 05:33:34;;;;;;;2.93;2.20;;;;;;;;;;5057407;28;20211;-70
2022/04/20 05:36:04;;;;;;;3.97;2.10;;;;;;;;;;5057044;28;20824;-70
2022/04/20 05:44:02;;;;;;;3.73;2.20;;;;;;;;;;5059114;28;20293;-71
2022/04/20 05:46:31;;;;;;;2.70;2.50;;;;;;;;;;5068047;28;20252;-71
2022/04/20 05:49:00;;;;;;;2.83;2.63;;;;;;;;;;5066865;28;20207;-71
2022/04/20 05:51:29;;;;;;;5.00;2.43;;;;;;;;;;5068648;28;20227;-71
2022/04/20 05:53:57;;;;;;;3.20;2.90;;;;;;;;;;5068172;28;20237;-71
2022/04/20 05:56:25;;;;;;;4.90;2.60;;;;;;;;;;5067646;28;20253;-71
2022/04/20 05:58:53;;;;;;;3.40;2.70;;;;;;;;;;5070560;28;20713;-71
2022/04/20 06:01:22;;;;;;;2.97;2.50;;;;;;;;;;5065700;28;20199;-75
2022/04/20 06:03:51;;;;;;;4.07;2.37;;;;;;;;;;5068229;28;20199;-74
2022/04/20 06:06:19;;;;;;;4.10;2.33;;;;;;;;;;5067378;28;20218;-75
2022/04/20 06:08:49;;;;;;;4.40;2.33;;;;;;;;;;5068579;28;20264;-75
2022/04/20 06:11:17;;;;;;;5.03;2.40;;;;;;;;;;5068140;28;20713;-75
2022/04/20 06:13:45;;;;;;;3.60;2.20;;;;;;;;;;5067238;28;20685;-75
2022/04/20 06:16:12;;;;;;;4.00;2.73;;;;;;;;;;5066444;28;20724;-75
2022/04/20 06:18:41;;;;;;;4.33;2.50;;;;;;;;;;5064846;28;20267;-75
2022/04/20 06:21:09;;;;;;;2.43;2.20;;;;;;;;;;5072498;28;20238;-75
2022/04/20 06:23:37;;;;;;;7.43;2.87;;;;;;;;;;5076947;28;20202;-74
2022/04/20 06:26:06;;;;;;;3.10;2.37;;;;;;;;;;5076716;28;20264;-75
2022/04/20 06:28:34;;;;;;;4.80;2.37;;;;;;;;;;5076767;28;20638;-75
2022/04/20 06:31:02;;;;;;;4.17;2.70;;;;;;;;;;5076609;28;20820;-74
2022/04/20 06:33:30;;;;;;;3.00;2.10;;;;;;;;;;5073393;28;20199;-75
2022/04/20 06:36:00;;;;;;;3.23;2.77;;;;;;;;;;5063992;28;20761;-75
2022/04/20 06:38:28;;;;;;;4.90;2.57;;;;;;;;;;5069088;28;20202;-75
2022/04/20 06:40:58;;;;;;;4.13;2.53;;;;;;;;;;5073668;28;20289;-75
2022/04/20 06:43:33;;;;;;;3.70;2.43;;;;;;;;;;5070713;28;20214;-75
2022/04/20 06:46:01;;;;;;;3.10;2.60;;;;;;;;;;5074176;28;20241;-75
2022/04/20 06:48:30;;;;;;;4.87;2.50;;;;;;;;;;5069735;28;20206;-75
2022/04/20 06:50:58;;;;;;;2.77;2.30;;;;;;;;;;5068752;28;20289;-75
2022/04/20 06:58:58;;;;;;;4.50;2.87;;;;;;;;;;5071671;28;20206;-74
2022/04/20 07:01:26;;;;;;;4.43;2.70;;;;;;;;;;5072072;28;20237;-75
2022/04/20 07:03:59;;;;;;;2.87;2.07;;;;;;;;;;5072807;28;20821;-75
2022/04/20 07:06:28;;;;;;;3.90;2.73;;;;;;;;;;5070523;28;20225;-75
2022/04/20 07:08:56;;;;;;;4.87;2.30;;;;;;;;;;5070396;28;20206;-75
2022/04/20 07:11:28;;;;;;;2.93;2.60;;;;;;;;;;5071693;28;20205;-74
2022/04/20 07:13:58;;;;;;;2.80;2.50;;;;;;;;;;5071856;28;20198;-74
2022/04/20 07:16:27;;;;;;;3.17;2.37;;;;;;;;;;5071386;28;20748;-75
2022/04/20 07:18:57;;;;;;;3.83;2.97;;;;;;;;;;5073687;28;20199;-75
2022/04/20 07:21:25;;;;;;;3.83;2.70;;;;;;;;;;5070687;28;20207;-75
2022/04/20 07:23:53;;;;;;;2.97;2.67;;;;;;;;;;5059551;28;20238;-75
2022/04/20 07:26:21;;;;;;;4.00;2.50;;;;;;;;;;5059274;28;20262;-74
2022/04/20 07:28:49;;;;;;;2.37;2.00;;;;;;;;;;5059484;28;20685;-74
2022/04/20 07:31:19;;;;;;;3.57;2.63;;;;;;;;;;5065962;28;20634;-74
2022/04/20 07:33:47;;;;;;;3.07;2.47;;;;;;;;;;5079065;28;20210;-74
2022/04/20 07:36:15;;;;;;;4.03;2.63;;;;;;;;;;5076694;28;20740;-74
2022/04/20 07:38:45;;;;;;;4.77;2.57;;;;;;;;;;5068896;28;20278;-74
2022/04/20 07:41:13;;;;;;;3.57;2.77;;;;;;;;;;5071653;28;20202;-74
2022/04/20 07:43:41;;;;;;;2.37;2.17;;;;;;;;;;5070047;28;20221;-74
2022/04/20 07:46:10;;;;;;;5.00;2.47;;;;;;;;;;5073716;28;20294;-75
2022/04/20 07:48:40;;;;;;;6.93;3.00;;;;;;;;;;5070744;28;20199;-73
2022/04/20 07:51:08;;;;;;;5.60;2.40;;;;;;;;;;5068418;28;20202;-74
2022/04/20 07:53:36;;;;;;;3.07;2.50;;;;;;;;;;5074402;28;20255;-74
2022/04/20 07:56:05;;;;;;;3.40;2.63;;;;;;;;;;5078504;28;20373;-72
2022/04/20 07:58:33;;;;;;;6.17;2.67;;;;;;;;;;5079277;28;20343;-74
2022/04/20 08:01:01;;;;;;;5.50;2.70;;;;;;;;;;5069358;28;20198;-74
2022/04/20 08:03:29;;;;;;;3.23;2.87;;;;;;;;;;5070973;28;20609;-74
2022/04/20 08:06:00;;;;;;;3.93;2.90;;;;;;;;;;5069718;28;20620;-73
2022/04/20 08:08:28;;;;;;;2.73;2.37;;;;;;;;;;5074160;28;20203;-72
2022/04/20 08:10:56;;;;;;;7.40;2.27;;;;;;;;;;5078647;28;20739;-74
2022/04/20 08:16:10;;;;;;;3.00;2.70;;;;;;;;;;5074137;28;20251;-73
2022/04/20 08:18:38;;;;;;;3.80;2.50;;;;;;;;;;5069997;28;20199;-74
2022/04/20 08:21:08;;;;;;;4.03;2.47;;;;;;;;;;5069992;28;20219;-74
2022/04/20 08:23:37;;;;;;;5.93;2.93;;;;;;;;;;5070879;28;20208;-73
2022/04/20 08:26:05;;;;;;;4.07;2.83;;;;;;;;;;5069557;28;20217;-74
2022/04/20 08:28:34;;;;;;;4.17;2.50;;;;;;;;;;5071871;28;20236;-73
2022/04/20 08:31:02;;;;;;;4.13;2.70;;;;;;;;;;5068256;28;20209;-73
2022/04/20 08:33:30;;;;;;;5.50;2.57;;;;;;;;;;5071265;28;20222;-73
2022/04/20 08:35:58;;;;;;;5.17;2.27;;;;;;;;;;5067423;28;20244;-73
2022/04/20 08:38:28;;;;;;;7.03;2.30;;;;;;;;;;5068934;28;20205;-72
2022/04/20 08:40:58;;;;;;;3.33;3.00;;;;;;;;;;5071973;28;20198;-73
2022/04/20 08:43:29;;;;;;;7.00;2.60;;;;;;;;;;5071571;28;20622;-73
2022/04/20 08:45:59;;;;;;;2.93;2.43;;;;;;;;;;5070199;28;20215;-73
2022/04/20 08:48:27;;;;;;;4.17;2.50;;;;;;;;;;5069628;28;20199;-74
2022/04/20 08:50:56;;;;;;;4.60;2.67;;;;;;;;;;5069088;28;20202;-74
2022/04/20 08:53:24;;;;;;;4.03;2.80;;;;;;;;;;5069655;28;20719;-73
2022/04/20 08:57:15;;;;;;;7.63;2.87;;;;;;;;;;5069643;28;20276;-73
2022/04/20 08:58:44;;;;;;;3.50;3.20;;;;;;;;;;5066157;28;20198;-73
2022/04/20 09:01:14;;;;;;;3.10;2.80;;;;;;;;;;5068516;28;20237;-74
2022/04/20 09:03:43;;;;;;;3.40;2.17;;;;;;;;;;5071242;28;20202;-75
2022/04/20 09:06:12;;;;;;;5.50;2.90;;;;;;;;;;5068837;28;20219;-75
2022/04/20 09:08:40;;;;;;;5.10;2.80;;;;;;;;;;5070145;28;20202;-75
2022/04/20 09:11:10;;;;;;;2.93;2.20;;;;;;;;;;5069981;28;20203;-73
2022/04/20 09:13:44;;;;;;;4.60;2.80;;;;;;;;;;5070796;28;20220;-73
2022/04/20 09:16:13;;;;;;;4.23;2.60;;;;;;;;;;5070449;28;20222;-74
2022/04/20 09:18:42;;;;;;;2.40;2.20;;;;;;;;;;5071535;28;20194;-75
2022/04/20 09:21:11;;;;;;;8.00;3.10;;;;;;;;;;5071721;28;20206;-75
2022/04/20 09:23:39;;;;;;;3.83;2.33;;;;;;;;;;5068976;28;20199;-73
2022/04/20 09:26:08;;;;;;;5.73;2.50;;;;;;;;;;5068679;28;20218;-75
2022/04/20 09:28:39;;;;;;;3.43;2.43;;;;;;;;;;5071138;28;20610;-75
2022/04/20 09:31:10;;;;;;;7.63;2.57;;;;;;;;;;5071374;28;20198;-75
2022/04/20 09:33:42;;;;;;;2.50;2.17;;;;;;;;;;5066260;28;20195;-74
2022/04/20 09:36:10;;;;;;;2.93;2.40;;;;;;;;;;5068698;28;20223;-76
2022/04/20 09:38:41;;;;;;;2.97;2.17;;;;;;;;;;5065762;28;20650;-75
2022/04/20 09:41:09;;;;;;;4.30;2.43;;;;;;;;;;5075440;28;20284;-75
2022/04/20 09:43:39;;;;;;;4.03;2.53;;;;;;;;;;5076554;28;20567;-73
2022/04/20 09:48:50;;;;;;;6.13;2.70;;;;;;;;;;5073816;28;20329;-72
2022/04/20 09:49:04;;;;;;;5.00;2.70;;;;;;;;;;5057956;28;20218;-73
2022/04/20 09:51:36;;;;;;;5.83;3.27;;;;;;;;;;5055949;28;20242;-73
2022/04/20 09:54:04;;;;;;;6.67;3.80;;;;;;;;;;5073591;28;20697;-73
2022/04/20 09:56:32;;;;;;;8.67;3.00;;;;;;;;;;5076474;28;20313;-73
2022/04/20 09:59:03;;;;;;;4.80;2.60;;;;;;;;;;5077260;28;20238;-73
2022/04/20 10:01:34;;;;;;;7.03;3.37;;;;;;;;;;5076272;28;20242;-74
2022/04/20 10:04:04;;;;;;;5.17;3.07;;;;;;;;;;5068866;28;20238;-74
2022/04/20 10:06:32;;;;;;;4.90;2.57;;;;;;;;;;5057342;28;20603;-73
2022/04/20 10:09:00;;;;;;;3.83;2.97;;;;;;;;;;5061813;28;20261;-73
2022/04/20 10:11:28;;;;;;;4.07;2.73;;;;;;;;;;5057485;28;20230;-74
2022/04/20 10:16:47;;;;;;;5.07;3.63;;;;;;;;;;5060133;28;20262;-76
2022/04/20 10:19:15;;;;;;;6.57;3.47;;;;;;;;;;5060676;28;20257;-79
2022/04/20 10:21:46;;;;;;;6.03;2.90;;;;;;;;;;5060374;28;20260;-80
2022/04/20 10:24:18;;;;;;;7.83;3.40;;;;;;;;;;5060658;28;20203;-79
2022/04/20 10:26:47;;;;;;;4.43;2.80;;;;;;;;;;5060914;28;20261;-77
2022/04/20 10:29:20;;;;;;;5.87;3.60;;;;;;;;;;5060519;28;20712;-74
2022/04/20 10:31:53;;;;;;;4.47;3.03;;;;;;;;;;5060548;28;20241;-74
2022/04/20 10:34:22;;;;;;;2.90;2.53;;;;;;;;;;5060589;28;20266;-77
2022/04/20 10:36:57;;;;;;;9.87;4.00;;;;;;;;;;5060159;28;20261;-76
2022/04/20 10:39:26;;;;;;;7.47;3.20;;;;;;;;;;5060263;28;20245;-76
2022/04/20 10:42:17;;;;;;;4.73;2.73;;;;;;;;;;5063166;28;20202;-75
2022/04/20 10:45:03;;;;;;;4.17;3.03;;;;;;;;;;5068035;28;20217;-76
2022/04/20 10:47:35;;;;;;;7.37;3.40;;;;;;;;;;5071068;28;20229;-76
2022/04/20 10:50:13;;;;;;;3.93;3.07;;;;;;;;;;5065888;28;20225;-76
2022/04/20 10:52:42;;;;;;;7.03;4.07;;;;;;;;;;5072044;28;20657;-75
2022/04/20 10:55:11;;;;;;;6.13;3.40;;;;;;;;;;5069885;28;20242;-76
2022/04/20 10:57:39;;;;;;;3.83;3.00;;;;;;;;;;5071149;28;20218;-76
2022/04/20 11:00:27;;;;;;;4.90;3.40;;;;;;;;;;5073727;28;20233;-75
2022/04/20 11:03:01;;;;;;;7.13;3.00;;;;;;;;;;5070452;28;20230;-75
2022/04/20 11:05:29;;;;;;;5.70;3.47;;;;;;;;;;5072856;28;20328;-75
2022/04/20 11:08:07;;;;;;;4.83;3.47;;;;;;;;;;5071543;28;20725;-75
2022/04/20 11:10:40;;;;;;;4.83;3.27;;;;;;;;;;5079264;28;20217;-76
2022/04/20 11:19:10;;;;;;;6.80;4.20;;;;;;;;;;5044300;28;20226;-76
2022/04/20 11:21:38;;;;;;;7.83;3.97;;;;;;;;;;5069013;28;20305;-75
2022/04/20 11:24:07;;;;;;;6.73;3.63;;;;;;;;;;5070859;28;20763;-75
2022/04/20 11:26:37;;;;;;;4.60;3.40;;;;;;;;;;5066684;28;20214;-76
2022/04/20 11:29:10;;;;;;;7.30;3.50;;;;;;;;;;5071188;28;20198;-74
2022/04/20 11:31:40;;;;;;;4.80;2.90;;;;;;;;;;5070765;28;20201;-75
2022/04/20 11:34:10;;;;;;;4.40;2.93;;;;;;;;;;5062850;28;20285;-74
2022/04/20 11:36:43;;;;;;;6.57;3.17;;;;;;;;;;5072994;28;20257;-75
2022/04/20 11:39:11;;;;;;;6.00;2.77;;;;;;;;;;5069444;28;20587;-75
2022/04/20 11:41:44;;;;;;;4.87;2.90;;;;;;;;;;5067340;28;20202;-73
2022/04/20 11:44:20;;;;;;;7.00;2.40;;;;;;;;;;5072109;28;20230;-72
2022/04/20 11:46:48;;;;;;;6.57;2.63;;;;;;;;;;5076513;28;20965;-74
2022/04/20 11:49:18;;;;;;;3.00;2.70;;;;;;;;;;5064966;28;20257;-76
2022/04/20 11:51:46;;;;;;;4.17;2.77;;;;;;;;;;5059247;28;20234;-77
2022/04/20 11:54:21;;;;;;;6.00;2.73;;;;;;;;;;5059009;28;20211;-76
2022/04/20 11:56:49;;;;;;;2.57;2.37;;;;;;;;;;5059068;28;20653;-74
2022/04/20 11:59:19;;;;;;;3.87;2.70;;;;;;;;;;5058887;28;20262;-75
2022/04/20 12:01:47;;;;;;;4.20;2.70;;;;;;;;;;5066970;28;20258;-72
2022/04/20 12:04:18;;;;;;;5.33;2.53;;;;;;;;;;5069519;28;20207;-72
2022/04/20 12:06:52;;;;;;;3.57;2.77;;;;;;;;;;5071824;28;20218;-74
2022/04/20 12:09:21;;;;;;;6.00;2.97;;;;;;;;;;5068716;28;20204;-75
2022/04/20 12:11:51;;;;;;;6.40;2.83;;;;;;;;;;5071610;28;20256;-74
2022/04/20 12:14:19;;;;;;;3.43;2.90;;;;;;;;;;5069628;28;20199;-75
2022/04/20 12:16:48;;;;;;;3.47;2.73;;;;;;;;;;5063837;28;20231;-76
2022/04/20 12:19:19;;;;;;;5.57;2.40;;;;;;;;;;5068139;28;20228;-76
2022/04/20 12:21:48;;;;;;;7.60;2.70;;;;;;;;;;5067463;28;20202;-76
2022/04/20 12:24:20;;;;;;;4.70;2.77;;;;;;;;;;5071386;28;20202;-76
2022/04/20 12:26:49;;;;;;;7.47;3.17;;;;;;;;;;5069621;28;20634;-74
2022/04/20 12:29:20;;;;;;;4.07;3.17;;;;;;;;;;5070384;28;20256;-76
2022/04/20 12:31:50;;;;;;;5.83;2.60;;;;;;;;;;5066183;28;20245;-76
2022/04/20 12:34:20;;;;;;;4.10;2.73;;;;;;;;;;5071869;28;20278;-76
2022/04/20 12:36:52;;;;;;;5.37;2.83;;;;;;;;;;5063213;28;20226;-76
2022/04/20 12:39:24;;;;;;;6.60;3.27;;;;;;;;;;5062843;28;20314;-75
2022/04/20 12:41:53;;;;;;;6.57;2.90;;;;;;;;;;5068941;28;20229;-74
2022/04/20 12:44:38;;;;;;;5.60;3.17;;;;;;;;;;5070966;28;20233;-75
2022/04/20 12:47:25;;;;;;;6.33;2.50;;;;;;;;;;5062977;28;20272;-74
2022/04/20 12:50:16;;;;;;;5.93;3.23;;;;;;;;;;5074889;28;20221;-75
2022/04/20 12:52:49;;;;;;;4.73;3.50;;;;;;;;;;5069152;28;20848;-75
2022/04/20 12:55:17;;;;;;;5.23;2.57;;;;;;;;;;5071684;28;20238;-75
2022/04/20 13:03:31;;;;;;;5.80;2.83;;;;;;;;;;5075459;28;20750;-74
2022/04/20 13:06:01;;;;;;;5.97;2.73;;;;;;;;;;5058037;28;20210;-76
2022/04/20 13:08:29;;;;;;;7.33;3.17;;;;;;;;;;5070850;28;20614;-78
2022/04/20 13:10:58;;;;;;;3.17;2.87;;;;;;;;;;5070349;28;20666;-77
2022/04/20 13:13:26;;;;;;;3.00;2.53;;;;;;;;;;5070996;28;20220;-77
2022/04/20 13:15:55;;;;;;;5.67;3.00;;;;;;;;;;5070559;28;20226;-77
2022/04/20 13:18:23;;;;;;;3.37;2.57;;;;;;;;;;5066409;28;20230;-76
2022/04/20 13:20:52;;;;;;;5.53;2.40;;;;;;;;;;5068250;28;20227;-76
2022/04/20 13:23:22;;;;;;;5.43;2.40;;;;;;;;;;5066238;28;20298;-76
2022/04/20 13:28:36;;;;;;;3.10;2.30;;;;;;;;;;5064401;28;20616;-75
2022/04/20 13:31:04;;;;;;;4.43;2.10;;;;;;;;;;5068384;28;20232;-77
2022/04/20 13:33:32;;;;;;;8.87;2.47;;;;;;;;;;5067295;28;20201;-77
2022/04/20 13:36:00;;;;;;;4.87;2.67;;;;;;;;;;5066329;28;20634;-76
2022/04/20 13:38:31;;;;;;;2.70;2.50;;;;;;;;;;5067400;28;20767;-76
2022/04/20 13:40:59;;;;;;;3.60;2.50;;;;;;;;;;5071366;28;20203;-76
2022/04/20 13:43:27;;;;;;;2.37;2.10;;;;;;;;;;5064620;28;20256;-76
2022/04/20 13:45:55;;;;;;;3.50;2.30;;;;;;;;;;5066069;28;20234;-77
2022/04/20 13:48:23;;;;;;;2.70;2.00;;;;;;;;;;5072979;28;20684;-77
2022/04/20 13:50:52;;;;;;;6.60;1.57;;;;;;;;;;5069231;28;20556;-77
2022/04/20 13:53:20;;;;;;;3.50;2.40;;;;;;;;;;5068752;28;20210;-77
2022/04/20 13:55:49;;;;;;;2.87;1.70;;;;;;;;;;5073921;28;20338;-77
2022/04/20 13:58:19;;;;;;;4.20;1.80;;;;;;;;;;5074009;28;20216;-76
2022/04/20 14:00:50;;;;;;;2.40;1.83;;;;;;;;;;5073368;28;20210;-76
2022/04/20 14:03:26;;;;;;;5.43;1.60;;;;;;;;;;5072157;28;20238;-74
2022/04/20 14:05:58;;;;;;;3.37;1.93;;;;;;;;;;5070408;28;20222;-78
2022/04/20 14:08:29;;;;;;;4.70;1.97;;;;;;;;;;5071059;28;20233;-75
2022/04/20 14:11:00;;;;;;;2.80;1.63;;;;;;;;;;5074200;28;20207;-73
2022/04/20 14:13:39;;;;;;;2.53;1.50;;;;;;;;;;5075204;28;20205;-76
2022/04/20 14:16:11;;;;;;;1.73;1.63;;;;;;;;;;5074199;28;20286;-77
2022/04/20 14:18:47;;;;;;;1.53;1.43;;;;;;;;;;5074868;28;20830;-79
2022/04/20 14:21:16;;;;;;;1.57;1.40;;;;;;;;;;5067848;28;20210;-77
2022/04/20 14:23:44;;;;;;;2.60;1.40;;;;;;;;;;5071984;28;20199;-77
2022/04/20 14:34:35;;;;;;;1.97;0.97;;;;;;;;;;5066587;28;20217;-77
2022/04/20 14:37:04;;;;;;;1.70;1.40;;;;;;;;;;5067839;28;20306;-77
2022/04/20 14:39:32;;;;;;;2.60;1.40;;;;;;;;;;5072428;28;20242;-77
2022/04/20 14:42:02;;;;;;;1.30;1.20;;;;;;;;;;5073567;28;20256;-77
2022/04/20 14:44:31;;;;;;;3.07;1.10;;;;;;;;;;5074400;28;20212;-77
2022/04/20 14:46:59;;;;;;;2.20;1.40;;;;;;;;;;5072189;28;20332;-77
2022/04/20 14:49:28;;;;;;;1.77;1.30;;;;;;;;;;5073245;28;20252;-77
2022/04/20 14:52:01;;;;;;;4.43;1.53;;;;;;;;;;5076404;28;20285;-77
2022/04/20 14:54:29;;;;;;;1.50;1.40;;;;;;;;;;5070775;28;20207;-77
2022/04/20 14:56:57;;;;;;;2.40;1.50;;;;;;;;;;5074330;28;20226;-77
2022/04/20 14:59:27;;;;;;;1.43;1.10;;;;;;;;;;5072456;28;20219;-77
2022/04/20 15:01:55;;;;;;;3.90;1.40;;;;;;;;;;5073466;28;20234;-77
2022/04/20 15:04:24;;;;;;;3.77;1.57;;;;;;;;;;5073869;28;20214;-77
2022/04/20 15:06:53;;;;;;;1.13;1.03;;;;;;;;;;5073273;28;20229;-77
2022/04/20 15:09:22;;;;;;;1.60;1.50;;;;;;;;;;5076618;28;20233;-76
2022/04/20 15:11:50;;;;;;;2.50;1.17;;;;;;;;;;5065822;28;20238;-77
2022/04/20 15:14:18;;;;;;;1.50;1.40;;;;;;;;;;5068894;28;20215;-76
2022/04/20 15:16:48;;;;;;;3.73;1.50;;;;;;;;;;5070299;28;20258;-77
2022/04/20 15:19:17;;;;;;;2.20;1.90;;;;;;;;;;5073646;28;20312;-76
2022/04/20 15:21:45;;;;;;;1.60;1.40;;;;;;;;;;5071338;28;20199;-76
2022/04/20 15:24:13;;;;;;;1.90;1.57;;;;;;;;;;5074723;28;20246;-76
2022/04/20 15:26:42;;;;;;;2.33;1.60;;;;;;;;;;5071548;28;20309;-76
2022/04/20 15:29:10;;;;;;;3.10;2.00;;;;;;;;;;5075038;28;20252;-77
2022/04/20 15:31:38;;;;;;;2.33;1.90;;;;;;;;;;5064670;28;20226;-76
2022/04/20 15:34:08;;;;;;;2.10;1.90;;;;;;;;;;5069933;28;20569;-77
2022/04/20 15:36:37;;;;;;;2.37;1.70;;;;;;;;;;5076436;28;20256;-77
2022/04/20 15:39:08;;;;;;;2.43;1.77;;;;;;;;;;5071668;28;20210;-76